sensor_id;sensor_type;location;lat;lon;timestamp;pressure;altitude;pressure_sealevel;temperature
64394;BMP280;50712;49.506;10.400;2023-10-13T00:00:14;98137.13;;;19.37
64394;BMP280;50712;49.506;10.400;2023-10-13T00:00:56;98136.38;;;19.37
64394;BMP280;50712;49.506;10.400;2023-10-13T00:01:28;98135.59;;;19.36
64394;BMP280;50712;49.506;10.400;2023-10-13T00:02:00;98135.59;;;19.36
64394;BMP280;50712;49.506;10.400;2023-10-13T00:02:33;98127.31;;;19.36
64394;BMP280;50712;49.506;10.400;2023-10-13T00:03:04;98126.56;;;19.36
64394;BMP280;50712;49.506;10.400;2023-10-13T00:03:36;98134.84;;;19.36
64394;BMP280;50712;49.506;10.400;2023-10-13T00:04:07;98127.31;;;19.36
64394;BMP280;50712;49.506;10.400;2023-10-13T00:04:38;98130.06;;;19.36
64394;BMP280;50712;49.506;10.400;2023-10-13T00:05:09;98135.59;;;19.36
64394;BMP280;50712;49.506;10.400;2023-10-13T00:05:39;98136.88;;;19.35
64394;BMP280;50712;49.506;10.400;2023-10-13T00:06:11;98133.38;;;19.35
64394;BMP280;50712;49.506;10.400;2023-10-13T00:06:42;98139.63;;;19.35
64394;BMP280;50712;49.506;10.400;2023-10-13T00:07:12;98132.06;;;19.36
64394;BMP280;50712;49.506;10.400;2023-10-13T00:07:43;98132.06;;;19.36
64394;BMP280;50712;49.506;10.400;2023-10-13T00:08:13;98133.38;;;19.35
64394;BMP280;50712;49.506;10.400;2023-10-13T00:08:46;98139.63;;;19.35
64394;BMP280;50712;49.506;10.400;2023-10-13T00:09:17;98127.31;;;19.36
64394;BMP280;50712;49.506;10.400;2023-10-13T00:09:49;98137.59;;;19.36
64394;BMP280;50712;49.506;10.400;2023-10-13T00:10:19;98141.13;;;19.36
64394;BMP280;50712;49.506;10.400;2023-10-13T00:10:51;98139.63;;;19.35
64394;BMP280;50712;49.506;10.400;2023-10-13T00:11:21;98134.84;;;19.36
64394;BMP280;50712;49.506;10.400;2023-10-13T00:11:52;98139.63;;;19.35
64394;BMP280;50712;49.506;10.400;2023-10-13T00:12:23;98139.63;;;19.35
64394;BMP280;50712;49.506;10.400;2023-10-13T00:12:54;98134.84;;;19.36
64394;BMP280;50712;49.506;10.400;2023-10-13T00:13:35;98128.59;;;19.35
64394;BMP280;50712;49.506;10.400;2023-10-13T00:14:13;98137.59;;;19.36
64394;BMP280;50712;49.506;10.400;2023-10-13T00:14:46;98132.06;;;19.36
64394;BMP280;50712;49.506;10.400;2023-10-13T00:15:21;98132.06;;;19.36
64394;BMP280;50712;49.506;10.400;2023-10-13T00:15:57;98132.06;;;19.36
64394;BMP280;50712;49.506;10.400;2023-10-13T00:16:28;98122.31;;;19.35
64394;BMP280;50712;49.506;10.400;2023-10-13T00:17:01;98125.81;;;19.35
64394;BMP280;50712;49.506;10.400;2023-10-13T00:17:35;98127.84;;;19.35
64394;BMP280;50712;49.506;10.400;2023-10-13T00:18:08;98129.31;;;19.36
64394;BMP280;50712;49.506;10.400;2023-10-13T00:18:42;98130.63;;;19.35
64394;BMP280;50712;49.506;10.400;2023-10-13T00:19:14;98129.84;;;19.34
64394;BMP280;50712;49.506;10.400;2023-10-13T00:19:44;98125.56;;;19.33
64394;BMP280;50712;49.506;10.400;2023-10-13T00:20:22;98124.81;;;19.33
64394;BMP280;50712;49.506;10.400;2023-10-13T00:21:05;98130.34;;;19.33
64394;BMP280;50712;49.506;10.400;2023-10-13T00:21:45;98122.03;;;19.33
64394;BMP280;50712;49.506;10.400;2023-10-13T00:22:17;98118.53;;;19.32
64394;BMP280;50712;49.506;10.400;2023-10-13T00:22:49;98128.09;;;19.31
64394;BMP280;50712;49.506;10.400;2023-10-13T00:23:20;98130.09;;;19.31
64394;BMP280;50712;49.506;10.400;2023-10-13T00:23:53;98122.56;;;19.31
64394;BMP280;50712;49.506;10.400;2023-10-13T00:24:23;98127.34;;;19.31
64394;BMP280;50712;49.506;10.400;2023-10-13T00:24:59;98115.53;;;19.30
64394;BMP280;50712;49.506;10.400;2023-10-13T00:25:33;98117.53;;;19.30
64394;BMP280;50712;49.506;10.400;2023-10-13T00:26:13;98123.06;;;19.30
64394;BMP280;50712;49.506;10.400;2023-10-13T00:26:49;98117.53;;;19.30
64394;BMP280;50712;49.506;10.400;2023-10-13T00:27:19;98115.53;;;19.30
64394;BMP280;50712;49.506;10.400;2023-10-13T00:27:59;98108.47;;;19.29
64394;BMP280;50712;49.506;10.400;2023-10-13T00:28:31;98111.25;;;19.29
64394;BMP280;50712;49.506;10.400;2023-10-13T00:29:28;98102.97;;;19.29
64394;BMP280;50712;49.506;10.400;2023-10-13T00:30:04;98108.47;;;19.29
64394;BMP280;50712;49.506;10.400;2023-10-13T00:30:47;98108.47;;;19.29
64394;BMP280;50712;49.506;10.400;2023-10-13T00:31:20;98113.28;;;19.29
64394;BMP280;50712;49.506;10.400;2023-10-13T00:31:52;98111.25;;;19.29
64394;BMP280;50712;49.506;10.400;2023-10-13T00:32:22;98114.00;;;19.29
64394;BMP280;50712;49.506;10.400;2023-10-13T00:32:57;98109.25;;;19.30
64394;BMP280;50712;49.506;10.400;2023-10-13T00:33:27;98120.31;;;19.30
64394;BMP280;50712;49.506;10.400;2023-10-13T00:33:57;98107.25;;;19.30
64394;BMP280;50712;49.506;10.400;2023-10-13T00:34:31;98109.25;;;19.30
64394;BMP280;50712;49.506;10.400;2023-10-13T00:35:02;98104.47;;;19.30
64394;BMP280;50712;49.506;10.400;2023-10-13T00:35:35;98109.25;;;19.30
64394;BMP280;50712;49.506;10.400;2023-10-13T00:36:06;98101.72;;;19.30
64394;BMP280;50712;49.506;10.400;2023-10-13T00:36:38;98109.25;;;19.30
64394;BMP280;50712;49.506;10.400;2023-10-13T00:37:39;98100.97;;;19.30
64394;BMP280;50712;49.506;10.400;2023-10-13T00:38:16;98097.44;;;19.29
64394;BMP280;50712;49.506;10.400;2023-10-13T00:38:47;98105.25;;;19.31
64394;BMP280;50712;49.506;10.400;2023-10-13T00:39:18;98107.25;;;19.30
64394;BMP280;50712;49.506;10.400;2023-10-13T00:39:48;98101.72;;;19.30
64394;BMP280;50712;49.506;10.400;2023-10-13T00:40:26;98109.50;;;19.32
64394;BMP280;50712;49.506;10.400;2023-10-13T00:40:59;98105.97;;;19.31
64394;BMP280;50712;49.506;10.400;2023-10-13T00:41:56;98099.72;;;19.31
64394;BMP280;50712;49.506;10.400;2023-10-13T00:42:36;98100.44;;;19.31
64394;BMP280;50712;49.506;10.400;2023-10-13T00:43:21;98103.22;;;19.31
64394;BMP280;50712;49.506;10.400;2023-10-13T00:43:52;98090.16;;;19.32
64394;BMP280;50712;49.506;10.400;2023-10-13T00:44:35;98095.69;;;19.32
64394;BMP280;50712;49.506;10.400;2023-10-13T00:45:12;98094.19;;;19.31
64394;BMP280;50712;49.506;10.400;2023-10-13T00:45:50;98098.44;;;19.32
64394;BMP280;50712;49.506;10.400;2023-10-13T00:46:25;98101.94;;;19.32
64394;BMP280;50712;49.506;10.400;2023-10-13T00:47:03;98096.19;;;19.30
64394;BMP280;50712;49.506;10.400;2023-10-13T00:47:37;98099.72;;;19.31
64394;BMP280;50712;49.506;10.400;2023-10-13T00:48:18;98097.69;;;19.31
64394;BMP280;50712;49.506;10.400;2023-10-13T00:48:48;98103.22;;;19.31
64394;BMP280;50712;49.506;10.400;2023-10-13T00:49:22;98098.44;;;19.32
64394;BMP280;50712;49.506;10.400;2023-10-13T00:49:53;98103.22;;;19.31
64394;BMP280;50712;49.506;10.400;2023-10-13T00:50:26;98096.97;;;19.31
64394;BMP280;50712;49.506;10.400;2023-10-13T00:50:57;98094.94;;;19.31
64394;BMP280;50712;49.506;10.400;2023-10-13T00:51:37;98094.94;;;19.31
64394;BMP280;50712;49.506;10.400;2023-10-13T00:52:17;98091.44;;;19.31
64394;BMP280;50712;49.506;10.400;2023-10-13T00:52:49;98088.66;;;19.31
64394;BMP280;50712;49.506;10.400;2023-10-13T00:53:23;98087.91;;;19.30
64394;BMP280;50712;49.506;10.400;2023-10-13T00:53:55;98090.66;;;19.30
64394;BMP280;50712;49.506;10.400;2023-10-13T00:54:28;98096.19;;;19.30
64394;BMP280;50712;49.506;10.400;2023-10-13T00:54:59;98089.91;;;19.30
64394;BMP280;50712;49.506;10.400;2023-10-13T00:55:30;98093.44;;;19.30
64394;BMP280;50712;49.506;10.400;2023-10-13T00:56:03;98090.66;;;19.30
64394;BMP280;50712;49.506;10.400;2023-10-13T00:56:40;98095.44;;;19.30
64394;BMP280;50712;49.506;10.400;2023-10-13T00:57:19;98089.16;;;19.29
64394;BMP280;50712;49.506;10.400;2023-10-13T00:58:03;98093.19;;;19.28
64394;BMP280;50712;49.506;10.400;2023-10-13T00:58:34;98089.16;;;19.29
64394;BMP280;50712;49.506;10.400;2023-10-13T00:59:05;98097.44;;;19.29
64394;BMP280;50712;49.506;10.400;2023-10-13T00:59:35;98093.94;;;19.29
64394;BMP280;50712;49.506;10.400;2023-10-13T01:00:06;98088.41;;;19.29
64394;BMP280;50712;49.506;10.400;2023-10-13T01:00:49;98088.41;;;19.29
64394;BMP280;50712;49.506;10.400;2023-10-13T01:01:26;98095.94;;;19.28
64394;BMP280;50712;49.506;10.400;2023-10-13T01:02:02;98093.19;;;19.28
64394;BMP280;50712;49.506;10.400;2023-10-13T01:02:53;98095.94;;;19.28
64394;BMP280;50712;49.506;10.400;2023-10-13T01:03:26;98092.41;;;19.28
64394;BMP280;50712;49.506;10.400;2023-10-13T01:03:57;98096.44;;;19.27
64394;BMP280;50712;49.506;10.400;2023-10-13T01:04:30;98090.91;;;19.27
64394;BMP280;50712;49.506;10.400;2023-10-13T01:05:02;98093.66;;;19.27
64394;BMP280;50712;49.506;10.400;2023-10-13T01:05:33;98089.44;;;19.26
64394;BMP280;50712;49.506;10.400;2023-10-13T01:06:05;98085.91;;;19.25
64394;BMP280;50712;49.506;10.400;2023-10-13T01:06:36;98090.16;;;19.26
64394;BMP280;50712;49.506;10.400;2023-10-13T01:07:07;98093.44;;;19.25
64394;BMP280;50712;49.506;10.400;2023-10-13T01:07:38;98096.19;;;19.25
64394;BMP280;50712;49.506;10.400;2023-10-13T01:08:08;98094.19;;;19.25
64394;BMP280;50712;49.506;10.400;2023-10-13T01:08:44;98093.44;;;19.25
64394;BMP280;50712;49.506;10.400;2023-10-13T01:09:15;98094.69;;;19.24
64394;BMP280;50712;49.506;10.400;2023-10-13T01:09:49;98100.22;;;19.24
64394;BMP280;50712;49.506;10.400;2023-10-13T01:10:20;98100.97;;;19.24
64394;BMP280;50712;49.506;10.400;2023-10-13T01:10:55;98103.72;;;19.24
64394;BMP280;50712;49.506;10.400;2023-10-13T01:11:26;98100.72;;;19.22
64394;BMP280;50712;49.506;10.400;2023-10-13T01:11:59;98104.97;;;19.23
64394;BMP280;50712;49.506;10.400;2023-10-13T01:12:30;98102.22;;;19.23
64394;BMP280;50712;49.506;10.400;2023-10-13T01:13:01;98105.72;;;19.24
64394;BMP280;50712;49.506;10.400;2023-10-13T01:13:34;98100.72;;;19.22
64394;BMP280;50712;49.506;10.400;2023-10-13T01:14:07;98098.69;;;19.23
64394;BMP280;50712;49.506;10.400;2023-10-13T01:14:37;98104.22;;;19.23
64394;BMP280;50712;49.506;10.400;2023-10-13T01:15:08;98097.22;;;19.22
64394;BMP280;50712;49.506;10.400;2023-10-13T01:15:41;98098.69;;;19.23
64394;BMP280;50712;49.506;10.400;2023-10-13T01:16:11;98111.03;;;19.22
64394;BMP280;50712;49.506;10.400;2023-10-13T01:16:41;98100.72;;;19.22
64394;BMP280;50712;49.506;10.400;2023-10-13T01:17:14;98102.75;;;19.22
64394;BMP280;50712;49.506;10.400;2023-10-13T01:17:45;98102.75;;;19.22
64394;BMP280;50712;49.506;10.400;2023-10-13T01:18:15;98101.44;;;19.23
64394;BMP280;50712;49.506;10.400;2023-10-13T01:18:46;98097.94;;;19.22
64394;BMP280;50712;49.506;10.400;2023-10-13T01:19:18;98093.69;;;19.21
64394;BMP280;50712;49.506;10.400;2023-10-13T01:19:51;98097.94;;;19.22
64394;BMP280;50712;49.506;10.400;2023-10-13T01:20:28;98097.94;;;19.22
64394;BMP280;50712;49.506;10.400;2023-10-13T01:20:58;98097.22;;;19.22
64394;BMP280;50712;49.506;10.400;2023-10-13T01:21:29;98101.44;;;19.23
64394;BMP280;50712;49.506;10.400;2023-10-13T01:22:00;98102.75;;;19.22
64394;BMP280;50712;49.506;10.400;2023-10-13T01:22:34;98093.69;;;19.21
64394;BMP280;50712;49.506;10.400;2023-10-13T01:23:10;98097.94;;;19.22
64394;BMP280;50712;49.506;10.400;2023-10-13T01:23:54;98097.22;;;19.22
64394;BMP280;50712;49.506;10.400;2023-10-13T01:24:25;98090.94;;;19.21
64394;BMP280;50712;49.506;10.400;2023-10-13T01:24:58;98093.69;;;19.21
64394;BMP280;50712;49.506;10.400;2023-10-13T01:25:37;98096.47;;;19.21
64394;BMP280;50712;49.506;10.400;2023-10-13T01:26:08;98095.69;;;19.21
64394;BMP280;50712;49.506;10.400;2023-10-13T01:26:39;98090.94;;;19.21
64394;BMP280;50712;49.506;10.400;2023-10-13T01:27:12;98095.69;;;19.21
64394;BMP280;50712;49.506;10.400;2023-10-13T01:27:50;98092.19;;;19.20
64394;BMP280;50712;49.506;10.400;2023-10-13T01:28:21;98091.41;;;19.20
64394;BMP280;50712;49.506;10.400;2023-10-13T01:28:58;98094.94;;;19.20
64394;BMP280;50712;49.506;10.400;2023-10-13T01:29:28;98097.69;;;19.20
64394;BMP280;50712;49.506;10.400;2023-10-13T01:29:59;98088.66;;;19.20
64394;BMP280;50712;49.506;10.400;2023-10-13T01:30:35;98079.63;;;19.19
64394;BMP280;50712;49.506;10.400;2023-10-13T01:31:09;98082.41;;;19.19
64394;BMP280;50712;49.506;10.400;2023-10-13T01:31:42;98081.13;;;19.20
64394;BMP280;50712;49.506;10.400;2023-10-13T01:32:17;98085.16;;;19.19
64394;BMP280;50712;49.506;10.400;2023-10-13T01:32:49;98078.88;;;19.19
64394;BMP280;50712;49.506;10.400;2023-10-13T01:33:21;98081.63;;;19.19
64394;BMP280;50712;49.506;10.400;2023-10-13T01:33:58;98078.88;;;19.19
64394;BMP280;50712;49.506;10.400;2023-10-13T01:34:28;98083.88;;;19.20
64394;BMP280;50712;49.506;10.400;2023-10-13T01:35:03;98082.41;;;19.19
64394;BMP280;50712;49.506;10.400;2023-10-13T01:35:37;98083.13;;;19.20
64394;BMP280;50712;49.506;10.400;2023-10-13T01:36:13;98078.38;;;19.20
64394;BMP280;50712;49.506;10.400;2023-10-13T01:36:43;98083.13;;;19.20
64394;BMP280;50712;49.506;10.400;2023-10-13T01:37:14;98085.16;;;19.19
64394;BMP280;50712;49.506;10.400;2023-10-13T01:37:46;98074.09;;;19.19
64394;BMP280;50712;49.506;10.400;2023-10-13T01:38:16;98074.09;;;19.19
64394;BMP280;50712;49.506;10.400;2023-10-13T01:38:47;98076.88;;;19.19
64394;BMP280;50712;49.506;10.400;2023-10-13T01:39:18;98081.63;;;19.19
64394;BMP280;50712;49.506;10.400;2023-10-13T01:39:50;98080.38;;;19.20
64394;BMP280;50712;49.506;10.400;2023-10-13T01:40:21;98076.09;;;19.19
64394;BMP280;50712;49.506;10.400;2023-10-13T01:40:59;98073.84;;;19.17
64394;BMP280;50712;49.506;10.400;2023-10-13T01:41:29;98071.81;;;19.18
64394;BMP280;50712;49.506;10.400;2023-10-13T01:42:01;98076.63;;;19.17
64394;BMP280;50712;49.506;10.400;2023-10-13T01:42:31;98071.09;;;19.17
64394;BMP280;50712;49.506;10.400;2023-10-13T01:43:01;98076.63;;;19.17
64394;BMP280;50712;49.506;10.400;2023-10-13T01:43:34;98073.09;;;19.17
64394;BMP280;50712;49.506;10.400;2023-10-13T01:44:05;98067.56;;;19.17
64394;BMP280;50712;49.506;10.400;2023-10-13T01:44:35;98075.13;;;19.16
64394;BMP280;50712;49.506;10.400;2023-10-13T01:45:06;98071.59;;;19.16
64394;BMP280;50712;49.506;10.400;2023-10-13T01:45:37;98071.09;;;19.17
64394;BMP280;50712;49.506;10.400;2023-10-13T01:46:19;98069.59;;;19.16
64394;BMP280;50712;49.506;10.400;2023-10-13T01:46:51;98066.84;;;19.16
64394;BMP280;50712;49.506;10.400;2023-10-13T01:47:22;98071.59;;;19.16
64394;BMP280;50712;49.506;10.400;2023-10-13T01:47:53;98074.38;;;19.16
64394;BMP280;50712;49.506;10.400;2023-10-13T01:48:24;98070.84;;;19.15
64394;BMP280;50712;49.506;10.400;2023-10-13T01:48:54;98077.13;;;19.16
64394;BMP280;50712;49.506;10.400;2023-10-13T01:49:27;98074.38;;;19.16
64394;BMP280;50712;49.506;10.400;2023-10-13T01:49:57;98074.38;;;19.16
64394;BMP280;50712;49.506;10.400;2023-10-13T01:50:28;98075.13;;;19.16
64394;BMP280;50712;49.506;10.400;2023-10-13T01:51:00;98077.88;;;19.16
64394;BMP280;50712;49.506;10.400;2023-10-13T01:51:32;98077.13;;;19.16
64394;BMP280;50712;49.506;10.400;2023-10-13T01:52:03;98079.88;;;19.16
64394;BMP280;50712;49.506;10.400;2023-10-13T01:52:34;98086.19;;;19.16
64394;BMP280;50712;49.506;10.400;2023-10-13T01:53:04;98072.38;;;19.16
64394;BMP280;50712;49.506;10.400;2023-10-13T01:53:47;98076.38;;;19.15
64394;BMP280;50712;49.506;10.400;2023-10-13T01:54:26;98071.59;;;19.16
64394;BMP280;50712;49.506;10.400;2023-10-13T01:54:56;98071.59;;;19.16
64394;BMP280;50712;49.506;10.400;2023-10-13T01:55:31;98075.84;;;19.17
64394;BMP280;50712;49.506;10.400;2023-10-13T01:56:09;98068.84;;;19.16
64394;BMP280;50712;49.506;10.400;2023-10-13T01:56:44;98070.84;;;19.15
64394;BMP280;50712;49.506;10.400;2023-10-13T01:57:14;98066.06;;;19.16
64394;BMP280;50712;49.506;10.400;2023-10-13T01:57:47;98066.06;;;19.16
64394;BMP280;50712;49.506;10.400;2023-10-13T01:58:18;98068.06;;;19.15
64394;BMP280;50712;49.506;10.400;2023-10-13T01:58:52;98070.84;;;19.15
64394;BMP280;50712;49.506;10.400;2023-10-13T01:59:23;98067.31;;;19.15
64394;BMP280;50712;49.506;10.400;2023-10-13T01:59:54;98067.31;;;19.15
64394;BMP280;50712;49.506;10.400;2023-10-13T02:00:27;98068.56;;;19.14
64394;BMP280;50712;49.506;10.400;2023-10-13T02:00:57;98070.56;;;19.13
64394;BMP280;50712;49.506;10.400;2023-10-13T02:01:33;98063.78;;;19.14
64394;BMP280;50712;49.506;10.400;2023-10-13T02:02:05;98065.78;;;19.14
64394;BMP280;50712;49.506;10.400;2023-10-13T02:02:37;98065.03;;;19.13
64394;BMP280;50712;49.506;10.400;2023-10-13T02:03:15;98071.31;;;19.14
64394;BMP280;50712;49.506;10.400;2023-10-13T02:03:46;98067.81;;;19.13
64394;BMP280;50712;49.506;10.400;2023-10-13T02:04:19;98069.84;;;19.13
64394;BMP280;50712;49.506;10.400;2023-10-13T02:04:51;98069.09;;;19.12
64394;BMP280;50712;49.506;10.400;2023-10-13T02:05:30;98069.84;;;19.13
64394;BMP280;50712;49.506;10.400;2023-10-13T02:06:05;98071.09;;;19.12
64394;BMP280;50712;49.506;10.400;2023-10-13T02:06:36;98083.66;;;19.13
64394;BMP280;50712;49.506;10.400;2023-10-13T02:07:07;98069.09;;;19.12
64394;BMP280;50712;49.506;10.400;2023-10-13T02:07:38;98071.84;;;19.12
64394;BMP280;50712;49.506;10.400;2023-10-13T02:08:09;98077.38;;;19.12
64394;BMP280;50712;49.506;10.400;2023-10-13T02:08:41;98071.09;;;19.12
64394;BMP280;50712;49.506;10.400;2023-10-13T02:09:13;98071.84;;;19.12
64394;BMP280;50712;49.506;10.400;2023-10-13T02:09:44;98080.16;;;19.12
64394;BMP280;50712;49.506;10.400;2023-10-13T02:10:14;98071.84;;;19.12
64394;BMP280;50712;49.506;10.400;2023-10-13T02:10:45;98067.56;;;19.11
64394;BMP280;50712;49.506;10.400;2023-10-13T02:11:15;98070.34;;;19.11
64394;BMP280;50712;49.506;10.400;2023-10-13T02:11:49;98065.56;;;19.12
64394;BMP280;50712;49.506;10.400;2023-10-13T02:12:24;98068.34;;;19.12
64394;BMP280;50712;49.506;10.400;2023-10-13T02:13:13;98074.63;;;19.12
64394;BMP280;50712;49.506;10.400;2023-10-13T02:13:47;98070.34;;;19.11
64394;BMP280;50712;49.506;10.400;2023-10-13T02:14:21;98065.56;;;19.12
64394;BMP280;50712;49.506;10.400;2023-10-13T02:14:52;98065.56;;;19.12
64394;BMP280;50712;49.506;10.400;2023-10-13T02:15:23;98073.88;;;19.12
64394;BMP280;50712;49.506;10.400;2023-10-13T02:15:57;98062.06;;;19.11
64394;BMP280;50712;49.506;10.400;2023-10-13T02:16:27;98064.81;;;19.11
64394;BMP280;50712;49.506;10.400;2023-10-13T02:16:58;98065.56;;;19.12
64394;BMP280;50712;49.506;10.400;2023-10-13T02:17:46;98063.56;;;19.12
64394;BMP280;50712;49.506;10.400;2023-10-13T02:18:22;98063.56;;;19.12
64394;BMP280;50712;49.506;10.400;2023-10-13T02:18:57;98068.34;;;19.12
64394;BMP280;50712;49.506;10.400;2023-10-13T02:19:34;98064.34;;;19.13
64394;BMP280;50712;49.506;10.400;2023-10-13T02:20:05;98066.34;;;19.12
64394;BMP280;50712;49.506;10.400;2023-10-13T02:20:38;98061.56;;;19.13
64394;BMP280;50712;49.506;10.400;2023-10-13T02:21:15;98060.81;;;19.12
64394;BMP280;50712;49.506;10.400;2023-10-13T02:21:46;98058.81;;;19.13
64394;BMP280;50712;49.506;10.400;2023-10-13T02:22:28;98058.81;;;19.13
64394;BMP280;50712;49.506;10.400;2023-10-13T02:22:59;98053.28;;;19.13
64394;BMP280;50712;49.506;10.400;2023-10-13T02:23:30;98064.34;;;19.13
64394;BMP280;50712;49.506;10.400;2023-10-13T02:24:01;98056.75;;;19.13
64394;BMP280;50712;49.506;10.400;2023-10-13T02:24:34;98054.00;;;19.13
64394;BMP280;50712;49.506;10.400;2023-10-13T02:25:10;98065.03;;;19.13
64394;BMP280;50712;49.506;10.400;2023-10-13T02:25:49;98053.28;;;19.13
64394;BMP280;50712;49.506;10.400;2023-10-13T02:26:22;98057.50;;;19.14
64394;BMP280;50712;49.506;10.400;2023-10-13T02:27:00;98051.22;;;19.13
64394;BMP280;50712;49.506;10.400;2023-10-13T02:27:34;98059.03;;;19.15
64394;BMP280;50712;49.506;10.400;2023-10-13T02:28:11;98055.50;;;19.14
64394;BMP280;50712;49.506;10.400;2023-10-13T02:28:45;98059.50;;;19.13
64394;BMP280;50712;49.506;10.400;2023-10-13T02:29:21;98051.97;;;19.14
64394;BMP280;50712;49.506;10.400;2023-10-13T02:29:51;98054.75;;;19.14
64394;BMP280;50712;49.506;10.400;2023-10-13T02:30:28;98049.22;;;19.14
64394;BMP280;50712;49.506;10.400;2023-10-13T02:31:02;98049.22;;;19.14
64394;BMP280;50712;49.506;10.400;2023-10-13T02:31:36;98048.47;;;19.13
64394;BMP280;50712;49.506;10.400;2023-10-13T02:32:08;98043.69;;;19.14
64394;BMP280;50712;49.506;10.400;2023-10-13T02:32:48;98046.47;;;19.14
64394;BMP280;50712;49.506;10.400;2023-10-13T02:33:19;98048.47;;;19.13
64394;BMP280;50712;49.506;10.400;2023-10-13T02:33:59;98049.97;;;19.14
64394;BMP280;50712;49.506;10.400;2023-10-13T02:34:31;98042.47;;;19.15
64394;BMP280;50712;49.506;10.400;2023-10-13T02:35:02;98044.47;;;19.14
64394;BMP280;50712;49.506;10.400;2023-10-13T02:35:37;98051.97;;;19.14
64394;BMP280;50712;49.506;10.400;2023-10-13T02:36:23;98044.47;;;19.14
64394;BMP280;50712;49.506;10.400;2023-10-13T02:37:06;98042.47;;;19.15
64394;BMP280;50712;49.506;10.400;2023-10-13T02:37:36;98049.22;;;19.14
64394;BMP280;50712;49.506;10.400;2023-10-13T02:38:07;98036.94;;;19.15
64394;BMP280;50712;49.506;10.400;2023-10-13T02:38:41;98043.97;;;19.16
64394;BMP280;50712;49.506;10.400;2023-10-13T02:39:16;98045.22;;;19.15
64394;BMP280;50712;49.506;10.400;2023-10-13T02:39:46;98043.22;;;19.15
64394;BMP280;50712;49.506;10.400;2023-10-13T02:40:16;98042.47;;;19.15
64394;BMP280;50712;49.506;10.400;2023-10-13T02:40:53;98041.22;;;19.16
64394;BMP280;50712;49.506;10.400;2023-10-13T02:41:25;98041.22;;;19.16
64394;BMP280;50712;49.506;10.400;2023-10-13T02:41:56;98043.22;;;19.15
64394;BMP280;50712;49.506;10.400;2023-10-13T02:42:26;98045.97;;;19.15
64394;BMP280;50712;49.506;10.400;2023-10-13T02:42:57;98041.22;;;19.16
64394;BMP280;50712;49.506;10.400;2023-10-13T02:43:27;98041.22;;;19.16
64394;BMP280;50712;49.506;10.400;2023-10-13T02:44:04;98043.97;;;19.16
64394;BMP280;50712;49.506;10.400;2023-10-13T02:44:40;98039.22;;;19.16
64394;BMP280;50712;49.506;10.400;2023-10-13T02:45:14;98041.97;;;19.16
64394;BMP280;50712;49.506;10.400;2023-10-13T02:45:51;98039.22;;;19.16
64394;BMP280;50712;49.506;10.400;2023-10-13T02:46:27;98048.22;;;19.17
64394;BMP280;50712;49.506;10.400;2023-10-13T02:46:59;98042.72;;;19.17
64394;BMP280;50712;49.506;10.400;2023-10-13T02:47:30;98042.72;;;19.17
64394;BMP280;50712;49.506;10.400;2023-10-13T02:48:03;98042.72;;;19.17
64394;BMP280;50712;49.506;10.400;2023-10-13T02:48:48;98043.47;;;19.17
64394;BMP280;50712;49.506;10.400;2023-10-13T02:49:27;98041.97;;;19.16
64394;BMP280;50712;49.506;10.400;2023-10-13T02:50:04;98043.47;;;19.17
64394;BMP280;50712;49.506;10.400;2023-10-13T02:50:41;98037.19;;;19.17
64394;BMP280;50712;49.506;10.400;2023-10-13T02:51:13;98049.00;;;19.17
64394;BMP280;50712;49.506;10.400;2023-10-13T02:51:46;98038.69;;;19.18
64394;BMP280;50712;49.506;10.400;2023-10-13T02:52:17;98044.19;;;19.18
64394;BMP280;50712;49.506;10.400;2023-10-13T02:52:47;98038.69;;;19.18
64394;BMP280;50712;49.506;10.400;2023-10-13T02:53:20;98040.72;;;19.17
64394;BMP280;50712;49.506;10.400;2023-10-13T02:53:51;98033.16;;;19.18
64394;BMP280;50712;49.506;10.400;2023-10-13T02:54:22;98034.44;;;19.17
64394;BMP280;50712;49.506;10.400;2023-10-13T02:54:56;98037.94;;;19.17
64394;BMP280;50712;49.506;10.400;2023-10-13T02:55:27;98037.94;;;19.17
64394;BMP280;50712;49.506;10.400;2023-10-13T02:55:58;98037.94;;;19.17
64394;BMP280;50712;49.506;10.400;2023-10-13T02:56:34;98035.91;;;19.18
64394;BMP280;50712;49.506;10.400;2023-10-13T02:57:05;98040.72;;;19.17
64394;BMP280;50712;49.506;10.400;2023-10-13T02:57:36;98034.44;;;19.17
64394;BMP280;50712;49.506;10.400;2023-10-13T02:58:06;98033.16;;;19.18
64394;BMP280;50712;49.506;10.400;2023-10-13T02:58:39;98037.19;;;19.17
64394;BMP280;50712;49.506;10.400;2023-10-13T02:59:15;98035.19;;;19.17
64394;BMP280;50712;49.506;10.400;2023-10-13T02:59:49;98030.94;;;19.16
64394;BMP280;50712;49.506;10.400;2023-10-13T03:00:42;98031.66;;;19.17
64394;BMP280;50712;49.506;10.400;2023-10-13T03:01:12;98028.16;;;19.16
64394;BMP280;50712;49.506;10.400;2023-10-13T03:01:48;98027.41;;;19.16
64394;BMP280;50712;49.506;10.400;2023-10-13T03:02:22;98019.13;;;19.16
64394;BMP280;50712;49.506;10.400;2023-10-13T03:02:57;98014.84;;;19.15
64394;BMP280;50712;49.506;10.400;2023-10-13T03:03:31;98027.41;;;19.16
64394;BMP280;50712;49.506;10.400;2023-10-13T03:04:02;98019.88;;;19.16
64394;BMP280;50712;49.506;10.400;2023-10-13T03:04:33;98019.13;;;19.16
64394;BMP280;50712;49.506;10.400;2023-10-13T03:05:04;98023.88;;;19.15
64394;BMP280;50712;49.506;10.400;2023-10-13T03:05:39;98024.66;;;19.16
64394;BMP280;50712;49.506;10.400;2023-10-13T03:06:10;98024.66;;;19.16
64394;BMP280;50712;49.506;10.400;2023-10-13T03:06:43;98027.41;;;19.16
64394;BMP280;50712;49.506;10.400;2023-10-13T03:07:17;98023.38;;;19.17
64394;BMP280;50712;49.506;10.400;2023-10-13T03:07:59;98021.13;;;19.15
64394;BMP280;50712;49.506;10.400;2023-10-13T03:08:34;98024.66;;;19.16
64394;BMP280;50712;49.506;10.400;2023-10-13T03:09:08;98020.38;;;19.15
64394;BMP280;50712;49.506;10.400;2023-10-13T03:09:51;98019.59;;;19.14
64394;BMP280;50712;49.506;10.400;2023-10-13T03:10:22;98019.59;;;19.14
64394;BMP280;50712;49.506;10.400;2023-10-13T03:10:58;98014.84;;;19.15
64394;BMP280;50712;49.506;10.400;2023-10-13T03:11:31;98019.59;;;19.14
64394;BMP280;50712;49.506;10.400;2023-10-13T03:12:03;98016.06;;;19.14